createdAt,value
2022-11-23T00:05:46.850Z,95.71
2022-11-23T00:11:56.759Z,95.89
2022-11-23T00:18:00.712Z,97.85
2022-11-23T00:24:10.092Z,97.76
2022-11-23T00:30:12.720Z,98.59
2022-11-23T00:36:18.822Z,98.28
2022-11-23T00:42:20.763Z,98.24
2022-11-23T00:48:35.473Z,98.05
2022-11-23T00:54:37.379Z,97.97
2022-11-23T01:00:53.929Z,98.04
2022-11-23T01:13:16.136Z,96.45
2022-11-23T01:19:20.735Z,96.89
2022-11-23T01:25:23.058Z,98.31
2022-11-23T01:31:28.704Z,98.23
2022-11-23T01:37:30.615Z,98.47
2022-11-23T01:43:32.817Z,98.64
2022-11-23T01:49:48.385Z,98.21
2022-11-23T01:55:51.849Z,98.19
2022-11-23T02:01:53.866Z,98.68
2022-11-23T02:07:58.013Z,99.54
2022-11-23T02:14:03.757Z,100.00
2022-11-23T02:20:12.542Z,100.00
2022-11-23T02:26:36.984Z,100.00
2022-11-23T02:32:39.266Z,99.87
2022-11-23T02:38:41.345Z,100.00
2022-11-23T02:45:15.011Z,100.00
2022-11-23T02:51:17.104Z,100.00
2022-11-23T02:57:21.643Z,99.99
2022-11-23T03:03:23.715Z,100.00
2022-11-23T03:09:27.950Z,100.00
2022-11-23T03:15:29.960Z,100.00
2022-11-23T03:21:32.016Z,100.00
2022-11-23T03:27:34.909Z,100.00
2022-11-23T03:33:36.936Z,100.00
2022-11-23T03:39:42.886Z,100.00
2022-11-23T03:46:03.541Z,100.00
2022-11-23T03:52:05.680Z,100.00
2022-11-23T03:58:13.215Z,100.00
2022-11-23T04:04:15.239Z,100.00
2022-11-23T04:10:19.175Z,100.00
2022-11-23T04:16:21.110Z,100.00
2022-11-23T04:22:23.215Z,100.00
2022-11-23T04:28:25.157Z,100.00
2022-11-23T04:34:27.151Z,100.00
2022-11-23T04:40:48.455Z,100.00
2022-11-23T04:47:10.005Z,100.00
2022-11-23T04:53:13.296Z,100.00
2022-11-23T04:59:15.248Z,100.00
2022-11-23T05:05:20.597Z,100.00
2022-11-23T05:11:22.959Z,100.00
2022-11-23T05:17:40.259Z,100.00
2022-11-23T05:24:09.418Z,100.00
2022-11-23T05:30:44.321Z,100.00
2022-11-23T05:36:49.458Z,100.00
2022-11-23T05:43:03.015Z,100.00
2022-11-23T05:49:05.449Z,100.00
2022-11-23T05:55:08.315Z,100.00
2022-11-23T06:01:10.355Z,100.00
2022-11-23T06:07:15.381Z,100.00
2022-11-23T06:13:23.187Z,100.00
2022-11-23T06:19:32.920Z,100.00
2022-11-23T06:25:35.133Z,100.00
2022-11-23T06:31:47.522Z,100.00
2022-11-23T06:37:54.601Z,100.00
2022-11-23T06:44:12.595Z,100.00
2022-11-23T06:50:17.591Z,100.00
2022-11-23T06:56:27.693Z,100.00
2022-11-23T07:02:29.583Z,100.00
2022-11-23T07:15:23.024Z,100.00
2022-11-23T07:21:25.179Z,100.00
2022-11-23T07:27:42.665Z,100.00
2022-11-23T07:33:48.390Z,100.00
2022-11-23T07:39:57.695Z,100.00
2022-11-23T07:46:00.254Z,99.57
2022-11-23T07:52:02.261Z,99.07
2022-11-23T07:58:07.996Z,99.53
2022-11-23T08:04:09.916Z,99.46
2022-11-23T08:10:18.506Z,99.78
2022-11-23T08:16:35.234Z,99.27
2022-11-23T08:22:37.522Z,99.25
2022-11-23T08:28:39.983Z,99.23
2022-11-23T08:34:44.463Z,98.15
2022-11-23T08:40:48.582Z,97.42
2022-11-23T08:46:50.924Z,97.73
2022-11-23T08:53:01.002Z,96.71
2022-11-23T08:59:16.038Z,96.18
2022-11-23T09:05:20.049Z,95.95
2022-11-23T09:11:22.061Z,95.27
2022-11-23T09:17:32.921Z,94.88
2022-11-23T09:23:35.070Z,95.12
2022-11-23T09:29:40.009Z,94.28
2022-11-23T09:35:43.972Z,94.40
2022-11-23T09:42:13.549Z,94.26
2022-11-23T09:48:35.119Z,94.02
2022-11-23T09:54:48.339Z,93.02
2022-11-23T10:01:07.982Z,92.18
2022-11-23T10:07:41.292Z,90.71
2022-11-23T10:14:32.948Z,89.87
2022-11-23T10:20:48.393Z,88.34
2022-11-23T10:26:53.464Z,87.39
2022-11-23T10:33:50.722Z,87.24
2022-11-23T10:39:54.942Z,86.38
2022-11-23T10:46:41.044Z,85.63
2022-11-23T10:52:53.134Z,84.75
2022-11-23T10:58:57.437Z,82.24
2022-11-23T11:12:03.777Z,81.15
2022-11-23T11:18:22.496Z,80.18
2022-11-23T11:24:46.299Z,80.61
2022-11-23T11:31:15.955Z,80.14
2022-11-23T11:37:38.896Z,80.33
2022-11-23T11:44:04.956Z,77.03
2022-11-23T11:50:28.478Z,75.99
2022-11-23T11:56:52.978Z,77.83
2022-11-23T12:03:15.158Z,78.29
2022-11-23T12:09:23.044Z,76.72
2022-11-23T12:15:50.401Z,75.71
2022-11-23T12:22:36.395Z,75.41
2022-11-23T12:29:12.684Z,75.36
2022-11-23T12:36:23.598Z,76.17
2022-11-23T12:43:01.636Z,77.68
2022-11-23T12:49:38.993Z,78.92
2022-11-23T12:56:16.836Z,79.93
2022-11-23T13:02:53.046Z,79.23
2022-11-23T13:09:26.389Z,79.48
2022-11-23T13:16:11.439Z,79.93
2022-11-23T13:22:24.469Z,80.15
2022-11-23T13:28:31.591Z,80.67
2022-11-23T13:34:47.804Z,80.72
2022-11-23T13:40:49.749Z,79.03
2022-11-23T13:47:18.778Z,77.48
2022-11-23T13:53:44.395Z,77.87
2022-11-23T13:59:50.117Z,78.98
2022-11-23T14:06:01.364Z,79.96
2022-11-23T14:12:47.386Z,80.59
2022-11-23T14:18:52.064Z,79.76
2022-11-23T14:25:07.673Z,80.98
2022-11-23T14:31:13.545Z,81.76
2022-11-23T14:38:17.786Z,81.69
2022-11-23T14:44:38.448Z,82.68
2022-11-23T14:50:40.815Z,83.94
2022-11-23T14:56:52.696Z,83.91
2022-11-23T15:03:00.268Z,86.72
2022-11-23T15:09:38.841Z,87.31
2022-11-23T15:15:46.240Z,88.07
2022-11-23T15:21:57.342Z,88.95
2022-11-23T15:27:59.266Z,90.52
2022-11-23T15:34:20.687Z,90.76
2022-11-23T15:40:24.233Z,91.38
2022-11-23T15:46:43.737Z,91.94
2022-11-23T15:52:51.513Z,93.52
2022-11-23T15:58:54.533Z,94.38
2022-11-23T16:05:25.439Z,94.54
2022-11-23T16:11:36.686Z,95.90
2022-11-23T16:17:45.545Z,96.36
2022-11-23T16:23:56.885Z,96.35
2022-11-23T16:30:04.393Z,96.80
2022-11-23T16:36:09.451Z,95.52
2022-11-23T16:42:19.247Z,96.35
2022-11-23T16:48:27.112Z,96.22
2022-11-23T16:54:33.237Z,96.16
2022-11-23T17:00:36.044Z,95.03
2022-11-23T17:06:56.282Z,95.87
2022-11-23T17:13:01.538Z,96.22
2022-11-23T17:19:06.352Z,96.38
2022-11-23T17:25:15.265Z,97.50
2022-11-23T17:31:20.391Z,98.05
2022-11-23T17:37:28.106Z,98.13
2022-11-23T17:43:32.918Z,99.00
2022-11-23T17:49:46.135Z,99.41
2022-11-23T17:55:48.628Z,99.29
2022-11-23T18:02:02.807Z,99.64
2022-11-23T18:08:08.080Z,99.41
2022-11-23T18:14:18.083Z,99.50
2022-11-23T18:20:20.233Z,99.08
2022-11-23T18:26:30.469Z,99.27
2022-11-23T18:32:32.441Z,100.00
2022-11-23T18:38:47.187Z,100.00
2022-11-23T18:44:49.185Z,100.00
2022-11-23T18:51:04.993Z,100.00
2022-11-23T18:57:09.959Z,100.00
2022-11-23T19:03:16.352Z,100.00
2022-11-23T19:09:18.246Z,100.00
2022-11-23T19:15:20.243Z,100.00
2022-11-23T19:21:25.886Z,100.00
2022-11-23T19:27:38.205Z,100.00
2022-11-23T19:33:40.238Z,100.00
2022-11-23T19:39:47.749Z,99.63
2022-11-23T19:45:57.601Z,99.61
2022-11-23T19:52:03.516Z,99.74
2022-11-23T19:58:05.432Z,100.00
2022-11-23T20:04:15.475Z,99.78
2022-11-23T20:10:20.398Z,99.42
2022-11-23T20:16:26.053Z,99.80
2022-11-23T20:22:32.628Z,100.00
2022-11-23T20:28:34.868Z,99.79
2022-11-23T20:34:36.983Z,99.29
2022-11-23T20:40:51.215Z,99.96
2022-11-23T20:47:03.881Z,100.00
2022-11-23T20:53:06.065Z,100.00
2022-11-23T20:59:11.649Z,100.00
2022-11-23T21:05:23.587Z,100.00
2022-11-23T21:11:47.355Z,100.00
2022-11-23T21:17:49.767Z,100.00
2022-11-23T21:23:52.564Z,100.00
2022-11-23T21:29:55.143Z,99.89
2022-11-23T21:36:03.123Z,99.39
2022-11-23T21:42:17.226Z,100.00
2022-11-23T21:48:19.157Z,99.47
2022-11-23T21:54:27.096Z,99.27
2022-11-23T22:00:31.546Z,98.83
2022-11-23T22:06:39.091Z,99.07
2022-11-23T22:12:41.086Z,98.98
2022-11-23T22:18:55.825Z,98.12
2022-11-23T22:24:58.193Z,98.03
2022-11-23T22:31:12.432Z,98.49
2022-11-23T22:37:14.658Z,97.34
2022-11-23T22:43:25.624Z,97.75
2022-11-23T22:49:27.807Z,98.24
2022-11-23T22:55:38.806Z,98.48
2022-11-23T23:01:40.870Z,99.30
2022-11-23T23:07:43.291Z,99.52
2022-11-23T23:13:45.394Z,99.63
2022-11-23T23:19:50.109Z,99.04
2022-11-23T23:25:58.468Z,100.00
2022-11-23T23:32:03.220Z,100.00
2022-11-23T23:38:12.192Z,99.84
2022-11-23T23:44:14.691Z,100.00
2022-11-23T23:50:17.309Z,100.00
2022-11-23T23:56:26.265Z,100.00
